Milladore, WI (54454)

6:53 PM CDT on March 28, 2015 (GMT -0500)
KWIWISCO6 | | Change Station
CLOSE
Current Station
Personal Weather Station
Location: Wisconsin Rapids, WI
Elevation: 1029 ft
Nearby Weather Stations

Elev 1029 ft 44.39 °N, 89.83 °W | Updated 13 minutes ago

Clear
Clear
41.6 °F
Feels Like 38 °F
N
5.0
Wind Variable Wind from WSW
Gusts 11.0 mph

Today
High -- | Low -- °F
--% Chance of Precip.
Yesterday
High -- | Low -- °F
Precip. -- in
6:48 AM 7:21 PM
Waxing Gibbous, 66% visible
Pressure 30.20 in
Visibility 10.0 miles
Clouds Clear
Windchill 38 °F
Dew Point 14 °F
Humidity 33%
Rainfall 0.00 in
Snow Depth Not available.
UV 1 out of 12
Pollen 3.60 out of 12
Air Quality Not available.
Flu Activity Not available.
METAR KMFI 282254Z AUTO 19011KT 10SM CLR 04/M12 A3014 RMK AO2 SLP225 T00441122

More Conditions Fewer Conditions

Pressure 30.20 in
Visibility 10.0 miles
Clouds Clear
Windchill 38 °F
Dew Point 14 °F
Humidity 33%
Rainfall 0.00 in
Snow Depth Not available.
UV 1 out of 12
Pollen 3.60 out of 12
Air Quality Not available.
Flu Activity Not available.
METAR KMFI 282254Z AUTO 19011KT 10SM CLR 04/M12 A3014 RMK AO2 SLP225 T00441122

More Conditions Fewer Conditions

10-Day Weather Forecast

Almanac

Astronomy

Mar. 28, 2015 Rise Set
Actual Time
Civil Twilight
Nautical Twilight
Astronomical Twilight
Moon
Length of Visible Light
Length of Day
Tomorrow will be .
, % of the Moon is Illuminated

Today's Extremes

State Highs State Lows

Community

WunderPhotos

Upload Photos

1,809,128 photos uploaded!

WunderBlogs® & News

Nearby

Air Quality

  Air Quality AQ Index Pollutant
Not available.

Snow Depth

Station Depth Elevation

Earthquake Activity

City Distance Mag. Time & Date
Minimum magnitude displayed is 2.5.

Coastal Water Temperatures

Place Temperature

Stations

Nearby Weather Stations

Station Location Temp. Windchill Dew Point Humidity Wind Precip. Elev Updated Type